sensor_id;sensor_type;location;lat;lon;timestamp;P1;durP1;ratioP1;P2;durP2;ratioP2
34920;SDS011;21128;50.016;20.002;2024-02-23T00:00:56;2.90;;;0.90;;
34920;SDS011;21128;50.016;20.002;2024-02-23T00:03:43;2.60;;;0.80;;
34920;SDS011;21128;50.016;20.002;2024-02-23T00:06:10;1.30;;;0.70;;
34920;SDS011;21128;50.016;20.002;2024-02-23T00:08:36;1.30;;;0.80;;
34920;SDS011;21128;50.016;20.002;2024-02-23T00:11:04;1.30;;;1.00;;
34920;SDS011;21128;50.016;20.002;2024-02-23T00:13:30;2.80;;;1.00;;
34920;SDS011;21128;50.016;20.002;2024-02-23T00:15:58;1.30;;;1.00;;
34920;SDS011;21128;50.016;20.002;2024-02-23T00:18:25;1.90;;;0.90;;
34920;SDS011;21128;50.016;20.002;2024-02-23T00:20:51;1.40;;;1.00;;
34920;SDS011;21128;50.016;20.002;2024-02-23T00:23:18;1.10;;;0.60;;
34920;SDS011;21128;50.016;20.002;2024-02-23T00:25:45;2.00;;;1.00;;
34920;SDS011;21128;50.016;20.002;2024-02-23T00:28:12;3.50;;;1.10;;
34920;SDS011;21128;50.016;20.002;2024-02-23T00:30:39;1.20;;;1.00;;
34920;SDS011;21128;50.016;20.002;2024-02-23T00:33:06;2.10;;;0.90;;
34920;SDS011;21128;50.016;20.002;2024-02-23T00:35:33;2.10;;;1.00;;
34920;SDS011;21128;50.016;20.002;2024-02-23T00:37:59;1.50;;;0.90;;
34920;SDS011;21128;50.016;20.002;2024-02-23T00:40:26;4.10;;;1.30;;
34920;SDS011;21128;50.016;20.002;2024-02-23T00:42:53;1.80;;;1.20;;
34920;SDS011;21128;50.016;20.002;2024-02-23T00:45:20;1.70;;;1.10;;
34920;SDS011;21128;50.016;20.002;2024-02-23T00:47:48;1.90;;;1.20;;
34920;SDS011;21128;50.016;20.002;2024-02-23T00:50:16;2.40;;;1.40;;
34920;SDS011;21128;50.016;20.002;2024-02-23T00:52:43;2.00;;;1.30;;
34920;SDS011;21128;50.016;20.002;2024-02-23T00:55:10;2.10;;;1.00;;
34920;SDS011;21128;50.016;20.002;2024-02-23T00:57:37;1.90;;;1.30;;
34920;SDS011;21128;50.016;20.002;2024-02-23T01:00:05;2.50;;;1.00;;
34920;SDS011;21128;50.016;20.002;2024-02-23T01:02:32;3.70;;;1.20;;
34920;SDS011;21128;50.016;20.002;2024-02-23T01:04:59;2.20;;;1.40;;
34920;SDS011;21128;50.016;20.002;2024-02-23T01:07:27;2.20;;;1.20;;
34920;SDS011;21128;50.016;20.002;2024-02-23T01:09:53;1.40;;;0.90;;
34920;SDS011;21128;50.016;20.002;2024-02-23T01:12:20;5.10;;;1.30;;
34920;SDS011;21128;50.016;20.002;2024-02-23T01:14:47;1.90;;;1.50;;
34920;SDS011;21128;50.016;20.002;2024-02-23T01:17:15;5.00;;;1.50;;
34920;SDS011;21128;50.016;20.002;2024-02-23T01:19:43;1.70;;;1.30;;
34920;SDS011;21128;50.016;20.002;2024-02-23T01:22:10;1.80;;;1.20;;
34920;SDS011;21128;50.016;20.002;2024-02-23T01:24:37;1.90;;;1.20;;
34920;SDS011;21128;50.016;20.002;2024-02-23T01:27:04;2.40;;;1.30;;
34920;SDS011;21128;50.016;20.002;2024-02-23T01:29:31;3.20;;;1.80;;
34920;SDS011;21128;50.016;20.002;2024-02-23T01:31:58;3.70;;;1.50;;
34920;SDS011;21128;50.016;20.002;2024-02-23T01:34:25;2.70;;;1.40;;
34920;SDS011;21128;50.016;20.002;2024-02-23T01:36:52;2.40;;;1.70;;
34920;SDS011;21128;50.016;20.002;2024-02-23T01:39:19;2.60;;;1.20;;
34920;SDS011;21128;50.016;20.002;2024-02-23T01:41:45;2.40;;;1.50;;
34920;SDS011;21128;50.016;20.002;2024-02-23T01:44:12;2.30;;;1.30;;
34920;SDS011;21128;50.016;20.002;2024-02-23T01:46:41;3.10;;;1.80;;
34920;SDS011;21128;50.016;20.002;2024-02-23T01:49:08;2.80;;;1.80;;
34920;SDS011;21128;50.016;20.002;2024-02-23T01:51:35;2.90;;;1.50;;
34920;SDS011;21128;50.016;20.002;2024-02-23T01:54:03;2.70;;;1.50;;
34920;SDS011;21128;50.016;20.002;2024-02-23T01:56:30;2.50;;;1.50;;
34920;SDS011;21128;50.016;20.002;2024-02-23T01:58:59;2.60;;;1.60;;
34920;SDS011;21128;50.016;20.002;2024-02-23T02:01:30;2.90;;;1.60;;
34920;SDS011;21128;50.016;20.002;2024-02-23T02:03:58;3.20;;;1.40;;
34920;SDS011;21128;50.016;20.002;2024-02-23T02:06:25;3.60;;;1.40;;
34920;SDS011;21128;50.016;20.002;2024-02-23T02:08:51;3.90;;;1.30;;
34920;SDS011;21128;50.016;20.002;2024-02-23T02:11:19;3.60;;;1.40;;
34920;SDS011;21128;50.016;20.002;2024-02-23T02:13:46;2.90;;;1.80;;
34920;SDS011;21128;50.016;20.002;2024-02-23T02:16:13;3.90;;;1.70;;
34920;SDS011;21128;50.016;20.002;2024-02-23T02:18:40;3.80;;;1.70;;
34920;SDS011;21128;50.016;20.002;2024-02-23T02:21:06;5.10;;;1.90;;
34920;SDS011;21128;50.016;20.002;2024-02-23T02:23:33;1.90;;;1.40;;
34920;SDS011;21128;50.016;20.002;2024-02-23T02:26:00;3.10;;;1.50;;
34920;SDS011;21128;50.016;20.002;2024-02-23T02:28:27;2.70;;;1.60;;
34920;SDS011;21128;50.016;20.002;2024-02-23T02:30:54;1.90;;;1.50;;
34920;SDS011;21128;50.016;20.002;2024-02-23T02:33:20;2.20;;;1.40;;
34920;SDS011;21128;50.016;20.002;2024-02-23T02:35:48;3.40;;;1.50;;
34920;SDS011;21128;50.016;20.002;2024-02-23T02:38:16;4.10;;;1.50;;
34920;SDS011;21128;50.016;20.002;2024-02-23T02:40:43;5.40;;;1.60;;
34920;SDS011;21128;50.016;20.002;2024-02-23T02:43:10;2.20;;;1.50;;
34920;SDS011;21128;50.016;20.002;2024-02-23T02:45:37;2.20;;;1.30;;
34920;SDS011;21128;50.016;20.002;2024-02-23T02:48:04;3.30;;;1.50;;
34920;SDS011;21128;50.016;20.002;2024-02-23T02:50:31;1.90;;;1.60;;
34920;SDS011;21128;50.016;20.002;2024-02-23T02:52:58;3.00;;;1.50;;
34920;SDS011;21128;50.016;20.002;2024-02-23T02:55:25;2.70;;;1.70;;
34920;SDS011;21128;50.016;20.002;2024-02-23T02:57:52;3.50;;;1.70;;
34920;SDS011;21128;50.016;20.002;2024-02-23T03:00:18;3.30;;;2.00;;
34920;SDS011;21128;50.016;20.002;2024-02-23T03:02:45;2.90;;;1.70;;
34920;SDS011;21128;50.016;20.002;2024-02-23T03:05:12;3.20;;;1.80;;
34920;SDS011;21128;50.016;20.002;2024-02-23T03:07:38;2.30;;;1.40;;
34920;SDS011;21128;50.016;20.002;2024-02-23T03:10:05;1.70;;;1.40;;
34920;SDS011;21128;50.016;20.002;2024-02-23T03:12:33;2.20;;;1.70;;
34920;SDS011;21128;50.016;20.002;2024-02-23T03:15:00;2.90;;;1.70;;
34920;SDS011;21128;50.016;20.002;2024-02-23T03:17:28;3.30;;;1.60;;
34920;SDS011;21128;50.016;20.002;2024-02-23T03:19:56;3.20;;;1.50;;
34920;SDS011;21128;50.016;20.002;2024-02-23T03:22:22;3.50;;;1.80;;
34920;SDS011;21128;50.016;20.002;2024-02-23T03:24:49;4.00;;;2.10;;
34920;SDS011;21128;50.016;20.002;2024-02-23T03:27:16;2.10;;;1.40;;
34920;SDS011;21128;50.016;20.002;2024-02-23T03:29:43;2.10;;;1.70;;
34920;SDS011;21128;50.016;20.002;2024-02-23T03:32:09;2.50;;;1.60;;
34920;SDS011;21128;50.016;20.002;2024-02-23T03:34:36;3.90;;;2.00;;
34920;SDS011;21128;50.016;20.002;2024-02-23T03:37:03;4.00;;;1.70;;
34920;SDS011;21128;50.016;20.002;2024-02-23T03:39:30;2.80;;;1.70;;
34920;SDS011;21128;50.016;20.002;2024-02-23T03:41:58;2.90;;;1.90;;
34920;SDS011;21128;50.016;20.002;2024-02-23T03:44:25;2.60;;;1.50;;
34920;SDS011;21128;50.016;20.002;2024-02-23T03:46:52;2.80;;;1.70;;
34920;SDS011;21128;50.016;20.002;2024-02-23T03:49:18;4.00;;;1.80;;
34920;SDS011;21128;50.016;20.002;2024-02-23T03:51:45;4.10;;;1.80;;
34920;SDS011;21128;50.016;20.002;2024-02-23T03:54:12;3.10;;;1.70;;
34920;SDS011;21128;50.016;20.002;2024-02-23T03:56:39;1.80;;;1.50;;
34920;SDS011;21128;50.016;20.002;2024-02-23T03:59:08;2.50;;;1.40;;
34920;SDS011;21128;50.016;20.002;2024-02-23T04:01:36;3.50;;;1.60;;
34920;SDS011;21128;50.016;20.002;2024-02-23T04:04:03;2.20;;;1.60;;
34920;SDS011;21128;50.016;20.002;2024-02-23T04:06:31;2.20;;;1.50;;
34920;SDS011;21128;50.016;20.002;2024-02-23T04:08:58;3.80;;;2.00;;
34920;SDS011;21128;50.016;20.002;2024-02-23T04:11:25;3.30;;;1.40;;
34920;SDS011;21128;50.016;20.002;2024-02-23T04:13:52;2.60;;;1.50;;
34920;SDS011;21128;50.016;20.002;2024-02-23T04:16:22;3.40;;;1.70;;
34920;SDS011;21128;50.016;20.002;2024-02-23T04:18:50;6.20;;;2.20;;
34920;SDS011;21128;50.016;20.002;2024-02-23T04:21:18;6.70;;;1.90;;
34920;SDS011;21128;50.016;20.002;2024-02-23T04:23:45;8.00;;;3.00;;
34920;SDS011;21128;50.016;20.002;2024-02-23T04:26:12;4.90;;;2.30;;
34920;SDS011;21128;50.016;20.002;2024-02-23T04:28:40;4.10;;;1.50;;
34920;SDS011;21128;50.016;20.002;2024-02-23T04:31:10;2.70;;;1.50;;
34920;SDS011;21128;50.016;20.002;2024-02-23T04:33:37;2.00;;;1.50;;
34920;SDS011;21128;50.016;20.002;2024-02-23T04:36:04;2.80;;;1.70;;
34920;SDS011;21128;50.016;20.002;2024-02-23T04:38:33;2.90;;;1.60;;
34920;SDS011;21128;50.016;20.002;2024-02-23T04:41:04;2.10;;;1.60;;
34920;SDS011;21128;50.016;20.002;2024-02-23T04:43:31;3.30;;;1.40;;
34920;SDS011;21128;50.016;20.002;2024-02-23T04:45:58;2.10;;;1.50;;
34920;SDS011;21128;50.016;20.002;2024-02-23T04:48:25;1.70;;;1.50;;
34920;SDS011;21128;50.016;20.002;2024-02-23T04:50:52;1.40;;;1.10;;
34920;SDS011;21128;50.016;20.002;2024-02-23T04:53:19;3.00;;;1.30;;
34920;SDS011;21128;50.016;20.002;2024-02-23T04:55:45;7.00;;;1.40;;
34920;SDS011;21128;50.016;20.002;2024-02-23T04:58:12;3.10;;;1.10;;
34920;SDS011;21128;50.016;20.002;2024-02-23T05:00:40;3.10;;;1.80;;
34920;SDS011;21128;50.016;20.002;2024-02-23T05:03:06;2.90;;;1.50;;
34920;SDS011;21128;50.016;20.002;2024-02-23T05:05:35;1.90;;;1.40;;
34920;SDS011;21128;50.016;20.002;2024-02-23T05:08:02;3.70;;;1.50;;
34920;SDS011;21128;50.016;20.002;2024-02-23T05:10:29;3.60;;;1.70;;
34920;SDS011;21128;50.016;20.002;2024-02-23T05:12:55;4.20;;;1.80;;
34920;SDS011;21128;50.016;20.002;2024-02-23T05:15:22;3.90;;;1.70;;
34920;SDS011;21128;50.016;20.002;2024-02-23T05:17:49;6.40;;;1.50;;
34920;SDS011;21128;50.016;20.002;2024-02-23T05:20:16;3.50;;;1.60;;
34920;SDS011;21128;50.016;20.002;2024-02-23T05:22:42;2.50;;;1.30;;
34920;SDS011;21128;50.016;20.002;2024-02-23T05:25:09;3.60;;;1.60;;
34920;SDS011;21128;50.016;20.002;2024-02-23T05:27:36;3.20;;;1.40;;
34920;SDS011;21128;50.016;20.002;2024-02-23T05:30:03;2.30;;;1.20;;
34920;SDS011;21128;50.016;20.002;2024-02-23T05:32:30;4.70;;;1.70;;
34920;SDS011;21128;50.016;20.002;2024-02-23T05:34:57;2.30;;;1.40;;
34920;SDS011;21128;50.016;20.002;2024-02-23T05:37:24;3.00;;;1.50;;
34920;SDS011;21128;50.016;20.002;2024-02-23T05:39:50;3.20;;;1.40;;
34920;SDS011;21128;50.016;20.002;2024-02-23T05:42:17;3.00;;;1.70;;
34920;SDS011;21128;50.016;20.002;2024-02-23T05:44:44;5.30;;;1.70;;
34920;SDS011;21128;50.016;20.002;2024-02-23T05:47:11;3.50;;;1.80;;
34920;SDS011;21128;50.016;20.002;2024-02-23T05:49:40;4.10;;;1.30;;
34920;SDS011;21128;50.016;20.002;2024-02-23T05:52:07;3.20;;;2.00;;
34920;SDS011;21128;50.016;20.002;2024-02-23T05:54:34;3.50;;;1.60;;
34920;SDS011;21128;50.016;20.002;2024-02-23T05:57:01;3.40;;;1.80;;
34920;SDS011;21128;50.016;20.002;2024-02-23T05:59:29;6.40;;;2.30;;
34920;SDS011;21128;50.016;20.002;2024-02-23T06:01:56;5.40;;;2.60;;
34920;SDS011;21128;50.016;20.002;2024-02-23T06:04:25;4.10;;;2.10;;
34920;SDS011;21128;50.016;20.002;2024-02-23T06:06:53;5.10;;;2.60;;
34920;SDS011;21128;50.016;20.002;2024-02-23T06:09:20;5.20;;;2.50;;
34920;SDS011;21128;50.016;20.002;2024-02-23T06:11:47;6.20;;;2.40;;
34920;SDS011;21128;50.016;20.002;2024-02-23T06:14:14;3.10;;;2.30;;
34920;SDS011;21128;50.016;20.002;2024-02-23T06:16:41;3.30;;;2.00;;
34920;SDS011;21128;50.016;20.002;2024-02-23T06:19:08;4.90;;;1.90;;
34920;SDS011;21128;50.016;20.002;2024-02-23T06:21:35;3.20;;;1.80;;
34920;SDS011;21128;50.016;20.002;2024-02-23T06:24:03;3.50;;;2.20;;
34920;SDS011;21128;50.016;20.002;2024-02-23T06:26:31;3.20;;;2.20;;
34920;SDS011;21128;50.016;20.002;2024-02-23T06:28:58;2.70;;;1.80;;
34920;SDS011;21128;50.016;20.002;2024-02-23T06:31:24;5.80;;;2.90;;
34920;SDS011;21128;50.016;20.002;2024-02-23T06:33:52;8.10;;;3.00;;
34920;SDS011;21128;50.016;20.002;2024-02-23T06:36:18;3.80;;;2.50;;
34920;SDS011;21128;50.016;20.002;2024-02-23T06:38:45;6.40;;;2.60;;
34920;SDS011;21128;50.016;20.002;2024-02-23T06:41:12;6.00;;;3.00;;
34920;SDS011;21128;50.016;20.002;2024-02-23T06:43:38;7.60;;;2.80;;
34920;SDS011;21128;50.016;20.002;2024-02-23T06:46:09;5.50;;;2.60;;
34920;SDS011;21128;50.016;20.002;2024-02-23T06:48:36;4.90;;;2.70;;
34920;SDS011;21128;50.016;20.002;2024-02-23T06:51:04;6.70;;;3.00;;
34920;SDS011;21128;50.016;20.002;2024-02-23T06:53:31;14.30;;;3.70;;
34920;SDS011;21128;50.016;20.002;2024-02-23T06:55:58;6.30;;;3.70;;
34920;SDS011;21128;50.016;20.002;2024-02-23T06:58:26;4.30;;;2.80;;
34920;SDS011;21128;50.016;20.002;2024-02-23T07:00:53;7.30;;;3.60;;
34920;SDS011;21128;50.016;20.002;2024-02-23T07:03:20;11.10;;;3.60;;
34920;SDS011;21128;50.016;20.002;2024-02-23T07:05:47;6.80;;;2.50;;
34920;SDS011;21128;50.016;20.002;2024-02-23T07:08:16;8.10;;;2.90;;
34920;SDS011;21128;50.016;20.002;2024-02-23T07:10:43;7.70;;;2.50;;
34920;SDS011;21128;50.016;20.002;2024-02-23T07:13:10;6.80;;;3.00;;
34920;SDS011;21128;50.016;20.002;2024-02-23T07:15:37;11.40;;;2.70;;
34920;SDS011;21128;50.016;20.002;2024-02-23T07:18:04;10.30;;;2.60;;
34920;SDS011;21128;50.016;20.002;2024-02-23T07:20:31;7.10;;;3.10;;
34920;SDS011;21128;50.016;20.002;2024-02-23T07:22:58;4.60;;;2.30;;
34920;SDS011;21128;50.016;20.002;2024-02-23T07:25:25;9.50;;;2.90;;
34920;SDS011;21128;50.016;20.002;2024-02-23T07:27:52;9.90;;;2.70;;
34920;SDS011;21128;50.016;20.002;2024-02-23T07:30:19;4.70;;;2.40;;
34920;SDS011;21128;50.016;20.002;2024-02-23T07:32:46;5.80;;;2.40;;
34920;SDS011;21128;50.016;20.002;2024-02-23T07:35:15;6.80;;;2.80;;
34920;SDS011;21128;50.016;20.002;2024-02-23T07:37:42;4.90;;;2.30;;
34920;SDS011;21128;50.016;20.002;2024-02-23T07:40:09;3.10;;;2.30;;
34920;SDS011;21128;50.016;20.002;2024-02-23T07:42:36;11.40;;;3.10;;
34920;SDS011;21128;50.016;20.002;2024-02-23T07:45:03;6.20;;;3.30;;
34920;SDS011;21128;50.016;20.002;2024-02-23T07:47:31;7.70;;;3.20;;
34920;SDS011;21128;50.016;20.002;2024-02-23T07:49:58;7.40;;;3.20;;
34920;SDS011;21128;50.016;20.002;2024-02-23T07:52:25;4.60;;;2.10;;
34920;SDS011;21128;50.016;20.002;2024-02-23T07:54:52;6.80;;;2.60;;
34920;SDS011;21128;50.016;20.002;2024-02-23T07:57:19;4.90;;;2.40;;
34920;SDS011;21128;50.016;20.002;2024-02-23T07:59:47;4.20;;;2.00;;
34920;SDS011;21128;50.016;20.002;2024-02-23T08:02:14;5.90;;;2.30;;
34920;SDS011;21128;50.016;20.002;2024-02-23T08:04:42;9.70;;;4.40;;
34920;SDS011;21128;50.016;20.002;2024-02-23T08:07:09;10.60;;;2.90;;
34920;SDS011;21128;50.016;20.002;2024-02-23T08:09:36;6.30;;;2.80;;
34920;SDS011;21128;50.016;20.002;2024-02-23T08:12:03;4.90;;;2.40;;
34920;SDS011;21128;50.016;20.002;2024-02-23T08:14:30;6.60;;;2.50;;
34920;SDS011;21128;50.016;20.002;2024-02-23T08:16:59;7.30;;;2.80;;
34920;SDS011;21128;50.016;20.002;2024-02-23T08:19:26;6.30;;;2.60;;
34920;SDS011;21128;50.016;20.002;2024-02-23T08:21:52;5.00;;;2.70;;
34920;SDS011;21128;50.016;20.002;2024-02-23T08:24:19;5.30;;;2.90;;
34920;SDS011;21128;50.016;20.002;2024-02-23T08:26:46;7.80;;;2.90;;
34920;SDS011;21128;50.016;20.002;2024-02-23T08:29:13;6.80;;;3.10;;
34920;SDS011;21128;50.016;20.002;2024-02-23T08:31:40;4.20;;;2.40;;
34920;SDS011;21128;50.016;20.002;2024-02-23T08:34:06;9.20;;;3.20;;
34920;SDS011;21128;50.016;20.002;2024-02-23T08:36:33;5.60;;;2.70;;
34920;SDS011;21128;50.016;20.002;2024-02-23T08:39:00;7.60;;;3.30;;
34920;SDS011;21128;50.016;20.002;2024-02-23T08:41:27;8.20;;;3.50;;
34920;SDS011;21128;50.016;20.002;2024-02-23T08:43:54;5.90;;;3.90;;
34920;SDS011;21128;50.016;20.002;2024-02-23T08:46:21;9.80;;;3.70;;
34920;SDS011;21128;50.016;20.002;2024-02-23T08:48:49;7.60;;;3.90;;
34920;SDS011;21128;50.016;20.002;2024-02-23T08:51:15;10.30;;;4.00;;
34920;SDS011;21128;50.016;20.002;2024-02-23T08:53:42;7.90;;;3.30;;
34920;SDS011;21128;50.016;20.002;2024-02-23T08:56:10;9.30;;;3.60;;
34920;SDS011;21128;50.016;20.002;2024-02-23T08:58:38;16.00;;;4.90;;
34920;SDS011;21128;50.016;20.002;2024-02-23T09:01:04;6.20;;;3.30;;
34920;SDS011;21128;50.016;20.002;2024-02-23T09:03:31;9.70;;;4.20;;
34920;SDS011;21128;50.016;20.002;2024-02-23T09:05:58;7.70;;;3.60;;
34920;SDS011;21128;50.016;20.002;2024-02-23T09:08:25;7.10;;;3.70;;
34920;SDS011;21128;50.016;20.002;2024-02-23T09:10:52;7.10;;;2.90;;
34920;SDS011;21128;50.016;20.002;2024-02-23T09:13:19;6.50;;;3.10;;
34920;SDS011;21128;50.016;20.002;2024-02-23T09:15:45;7.40;;;3.40;;
34920;SDS011;21128;50.016;20.002;2024-02-23T09:18:12;6.20;;;3.30;;
34920;SDS011;21128;50.016;20.002;2024-02-23T09:20:39;8.10;;;3.20;;
34920;SDS011;21128;50.016;20.002;2024-02-23T09:23:06;6.30;;;3.10;;
34920;SDS011;21128;50.016;20.002;2024-02-23T09:25:33;7.80;;;3.60;;
34920;SDS011;21128;50.016;20.002;2024-02-23T09:28:00;7.80;;;3.40;;
34920;SDS011;21128;50.016;20.002;2024-02-23T09:30:27;6.20;;;3.40;;
34920;SDS011;21128;50.016;20.002;2024-02-23T09:32:54;7.50;;;3.20;;
34920;SDS011;21128;50.016;20.002;2024-02-23T09:35:20;6.60;;;2.90;;
34920;SDS011;21128;50.016;20.002;2024-02-23T09:37:47;5.30;;;3.30;;
34920;SDS011;21128;50.016;20.002;2024-02-23T09:40:14;6.30;;;3.50;;
34920;SDS011;21128;50.016;20.002;2024-02-23T09:42:42;8.10;;;3.30;;
34920;SDS011;21128;50.016;20.002;2024-02-23T09:45:15;4.40;;;3.00;;
34920;SDS011;21128;50.016;20.002;2024-02-23T09:47:42;6.80;;;3.20;;
34920;SDS011;21128;50.016;20.002;2024-02-23T09:50:10;5.80;;;3.00;;
34920;SDS011;21128;50.016;20.002;2024-02-23T09:52:38;5.90;;;3.30;;
34920;SDS011;21128;50.016;20.002;2024-02-23T09:55:05;7.30;;;3.20;;
34920;SDS011;21128;50.016;20.002;2024-02-23T09:57:32;7.40;;;3.30;;
34920;SDS011;21128;50.016;20.002;2024-02-23T10:00:01;6.40;;;3.20;;
34920;SDS011;21128;50.016;20.002;2024-02-23T10:02:32;8.70;;;3.20;;
34920;SDS011;21128;50.016;20.002;2024-02-23T10:04:59;7.70;;;3.20;;
34920;SDS011;21128;50.016;20.002;2024-02-23T10:07:29;5.70;;;3.40;;
34920;SDS011;21128;50.016;20.002;2024-02-23T10:09:56;5.90;;;3.10;;
34920;SDS011;21128;50.016;20.002;2024-02-23T10:12:22;4.70;;;3.10;;
34920;SDS011;21128;50.016;20.002;2024-02-23T10:14:49;5.70;;;2.80;;
34920;SDS011;21128;50.016;20.002;2024-02-23T10:17:16;5.30;;;2.60;;
34920;SDS011;21128;50.016;20.002;2024-02-23T10:19:44;8.80;;;2.90;;
34920;SDS011;21128;50.016;20.002;2024-02-23T10:22:11;4.30;;;2.90;;
34920;SDS011;21128;50.016;20.002;2024-02-23T10:24:38;6.70;;;3.10;;
34920;SDS011;21128;50.016;20.002;2024-02-23T10:27:05;4.00;;;2.40;;
34920;SDS011;21128;50.016;20.002;2024-02-23T10:29:32;7.70;;;3.20;;
34920;SDS011;21128;50.016;20.002;2024-02-23T10:31:59;5.30;;;2.90;;
34920;SDS011;21128;50.016;20.002;2024-02-23T10:34:27;8.80;;;3.20;;
34920;SDS011;21128;50.016;20.002;2024-02-23T10:36:57;5.50;;;3.70;;
34920;SDS011;21128;50.016;20.002;2024-02-23T10:39:24;4.90;;;2.70;;
34920;SDS011;21128;50.016;20.002;2024-02-23T10:42:00;5.30;;;3.40;;
34920;SDS011;21128;50.016;20.002;2024-02-23T10:44:30;5.30;;;3.00;;
34920;SDS011;21128;50.016;20.002;2024-02-23T10:46:58;10.80;;;3.40;;
34920;SDS011;21128;50.016;20.002;2024-02-23T10:49:26;6.20;;;3.00;;
34920;SDS011;21128;50.016;20.002;2024-02-23T10:51:54;4.60;;;3.10;;
34920;SDS011;21128;50.016;20.002;2024-02-23T10:54:21;4.60;;;2.80;;
34920;SDS011;21128;50.016;20.002;2024-02-23T10:56:49;7.60;;;4.10;;
34920;SDS011;21128;50.016;20.002;2024-02-23T10:59:17;5.50;;;3.40;;
34920;SDS011;21128;50.016;20.002;2024-02-23T11:01:46;4.30;;;2.60;;
34920;SDS011;21128;50.016;20.002;2024-02-23T11:04:16;5.60;;;2.70;;
34920;SDS011;21128;50.016;20.002;2024-02-23T11:06:48;4.50;;;2.60;;
34920;SDS011;21128;50.016;20.002;2024-02-23T11:09:16;7.90;;;2.80;;
34920;SDS011;21128;50.016;20.002;2024-02-23T11:11:56;4.60;;;2.80;;
34920;SDS011;21128;50.016;20.002;2024-02-23T11:14:31;4.20;;;3.00;;
34920;SDS011;21128;50.016;20.002;2024-02-23T11:17:01;5.00;;;2.60;;
34920;SDS011;21128;50.016;20.002;2024-02-23T11:19:33;4.40;;;2.40;;
34920;SDS011;21128;50.016;20.002;2024-02-23T11:22:02;4.30;;;2.20;;
34920;SDS011;21128;50.016;20.002;2024-02-23T11:24:30;5.70;;;2.60;;
34920;SDS011;21128;50.016;20.002;2024-02-23T11:26:58;5.40;;;2.50;;
34920;SDS011;21128;50.016;20.002;2024-02-23T11:29:27;3.30;;;2.30;;
34920;SDS011;21128;50.016;20.002;2024-02-23T11:31:56;5.70;;;2.50;;
34920;SDS011;21128;50.016;20.002;2024-02-23T11:34:28;3.60;;;2.50;;
34920;SDS011;21128;50.016;20.002;2024-02-23T11:36:54;3.90;;;2.60;;
34920;SDS011;21128;50.016;20.002;2024-02-23T11:39:22;7.20;;;2.70;;
34920;SDS011;21128;50.016;20.002;2024-02-23T11:41:50;6.30;;;2.90;;
34920;SDS011;21128;50.016;20.002;2024-02-23T11:44:17;5.80;;;2.60;;
34920;SDS011;21128;50.016;20.002;2024-02-23T11:46:44;6.30;;;3.40;;
34920;SDS011;21128;50.016;20.002;2024-02-23T11:49:14;4.10;;;2.40;;
34920;SDS011;21128;50.016;20.002;2024-02-23T11:51:42;7.00;;;2.80;;
34920;SDS011;21128;50.016;20.002;2024-02-23T11:54:11;6.90;;;2.90;;
34920;SDS011;21128;50.016;20.002;2024-02-23T11:56:39;10.50;;;3.00;;
34920;SDS011;21128;50.016;20.002;2024-02-23T11:59:07;5.10;;;2.60;;
34920;SDS011;21128;50.016;20.002;2024-02-23T12:01:34;8.20;;;2.80;;
34920;SDS011;21128;50.016;20.002;2024-02-23T12:04:01;5.20;;;2.70;;
34920;SDS011;21128;50.016;20.002;2024-02-23T12:06:28;5.00;;;2.70;;
34920;SDS011;21128;50.016;20.002;2024-02-23T12:08:57;3.70;;;2.00;;
34920;SDS011;21128;50.016;20.002;2024-02-23T12:11:24;4.30;;;2.30;;
34920;SDS011;21128;50.016;20.002;2024-02-23T12:13:51;4.00;;;2.30;;
34920;SDS011;21128;50.016;20.002;2024-02-23T12:16:18;3.30;;;2.10;;
34920;SDS011;21128;50.016;20.002;2024-02-23T12:18:52;4.10;;;1.90;;
34920;SDS011;21128;50.016;20.002;2024-02-23T12:21:23;3.60;;;2.20;;
34920;SDS011;21128;50.016;20.002;2024-02-23T12:23:51;3.40;;;2.00;;
34920;SDS011;21128;50.016;20.002;2024-02-23T12:26:18;4.30;;;2.20;;
34920;SDS011;21128;50.016;20.002;2024-02-23T12:28:45;5.20;;;2.00;;
34920;SDS011;21128;50.016;20.002;2024-02-23T12:31:12;3.70;;;2.20;;
34920;SDS011;21128;50.016;20.002;2024-02-23T12:33:40;2.70;;;1.50;;
34920;SDS011;21128;50.016;20.002;2024-02-23T12:36:07;3.40;;;2.00;;
34920;SDS011;21128;50.016;20.002;2024-02-23T12:38:35;7.90;;;2.10;;
34920;SDS011;21128;50.016;20.002;2024-02-23T12:41:04;2.80;;;2.10;;
34920;SDS011;21128;50.016;20.002;2024-02-23T12:43:31;2.80;;;1.90;;
34920;SDS011;21128;50.016;20.002;2024-02-23T12:45:58;4.70;;;2.20;;
34920;SDS011;21128;50.016;20.002;2024-02-23T12:48:25;3.40;;;1.80;;
34920;SDS011;21128;50.016;20.002;2024-02-23T12:50:52;4.60;;;2.00;;
34920;SDS011;21128;50.016;20.002;2024-02-23T12:56:05;4.20;;;2.00;;
34920;SDS011;21128;50.016;20.002;2024-02-23T12:58:35;3.70;;;2.10;;
34920;SDS011;21128;50.016;20.002;2024-02-23T13:01:02;3.20;;;1.70;;
34920;SDS011;21128;50.016;20.002;2024-02-23T13:03:29;3.40;;;1.80;;
34920;SDS011;21128;50.016;20.002;2024-02-23T13:05:57;3.70;;;2.10;;
34920;SDS011;21128;50.016;20.002;2024-02-23T13:08:25;4.20;;;2.10;;
34920;SDS011;21128;50.016;20.002;2024-02-23T13:10:53;3.80;;;2.10;;
34920;SDS011;21128;50.016;20.002;2024-02-23T13:13:21;3.70;;;2.10;;
34920;SDS011;21128;50.016;20.002;2024-02-23T13:15:49;4.80;;;1.90;;
34920;SDS011;21128;50.016;20.002;2024-02-23T13:18:18;6.20;;;1.90;;
34920;SDS011;21128;50.016;20.002;2024-02-23T13:20:45;4.70;;;1.90;;
34920;SDS011;21128;50.016;20.002;2024-02-23T13:23:12;4.20;;;2.30;;
34920;SDS011;21128;50.016;20.002;2024-02-23T13:25:42;5.00;;;1.80;;
34920;SDS011;21128;50.016;20.002;2024-02-23T13:28:09;6.40;;;4.10;;
34920;SDS011;21128;50.016;20.002;2024-02-23T13:30:37;5.90;;;2.60;;
34920;SDS011;21128;50.016;20.002;2024-02-23T13:33:05;5.30;;;2.30;;
34920;SDS011;21128;50.016;20.002;2024-02-23T13:35:34;4.80;;;2.10;;
34920;SDS011;21128;50.016;20.002;2024-02-23T13:38:01;3.60;;;2.10;;
34920;SDS011;21128;50.016;20.002;2024-02-23T13:40:30;6.70;;;1.80;;
34920;SDS011;21128;50.016;20.002;2024-02-23T13:42:58;3.20;;;1.80;;
34920;SDS011;21128;50.016;20.002;2024-02-23T13:45:24;4.40;;;2.30;;
34920;SDS011;21128;50.016;20.002;2024-02-23T13:47:56;6.20;;;2.60;;
34920;SDS011;21128;50.016;20.002;2024-02-23T13:50:30;4.50;;;1.80;;
34920;SDS011;21128;50.016;20.002;2024-02-23T13:52:57;3.60;;;2.20;;
34920;SDS011;21128;50.016;20.002;2024-02-23T13:55:25;3.70;;;2.50;;
34920;SDS011;21128;50.016;20.002;2024-02-23T13:57:51;3.70;;;2.40;;
34920;SDS011;21128;50.016;20.002;2024-02-23T14:00:20;6.10;;;3.30;;
34920;SDS011;21128;50.016;20.002;2024-02-23T14:02:47;6.40;;;2.70;;
34920;SDS011;21128;50.016;20.002;2024-02-23T14:05:14;7.20;;;3.20;;
34920;SDS011;21128;50.016;20.002;2024-02-23T14:07:42;4.40;;;2.20;;
34920;SDS011;21128;50.016;20.002;2024-02-23T14:10:09;6.50;;;2.60;;
34920;SDS011;21128;50.016;20.002;2024-02-23T14:12:36;4.50;;;2.90;;
34920;SDS011;21128;50.016;20.002;2024-02-23T14:15:04;6.90;;;3.00;;
34920;SDS011;21128;50.016;20.002;2024-02-23T14:17:31;8.60;;;5.20;;
34920;SDS011;21128;50.016;20.002;2024-02-23T14:19:59;3.10;;;2.20;;
34920;SDS011;21128;50.016;20.002;2024-02-23T14:22:25;3.40;;;2.00;;
34920;SDS011;21128;50.016;20.002;2024-02-23T14:24:54;4.30;;;2.30;;
34920;SDS011;21128;50.016;20.002;2024-02-23T14:27:21;4.70;;;2.40;;
34920;SDS011;21128;50.016;20.002;2024-02-23T14:29:48;4.60;;;1.90;;
34920;SDS011;21128;50.016;20.002;2024-02-23T14:32:16;3.20;;;1.80;;
34920;SDS011;21128;50.016;20.002;2024-02-23T14:34:44;5.40;;;1.50;;
34920;SDS011;21128;50.016;20.002;2024-02-23T14:37:12;5.30;;;1.90;;